sensor_id;sensor_type;location;lat;lon;timestamp;pressure;altitude;pressure_sealevel;temperature;humidity
40948;BME280;49382;-25.924;28.194;2023-04-23T00:01:37;85001.19;;;18.93;33.84
40948;BME280;49382;-25.924;28.194;2023-04-23T00:04:03;85005.44;;;19.29;33.31
40948;BME280;49382;-25.924;28.194;2023-04-23T00:06:28;85005.78;;;19.29;31.84
40948;BME280;49382;-25.924;28.194;2023-04-23T00:08:54;85005.43;;;19.36;31.80
40948;BME280;49382;-25.924;28.194;2023-04-23T00:11:18;85001.76;;;19.16;32.64
40948;BME280;49382;-25.924;28.194;2023-04-23T00:13:43;84998.69;;;19.05;32.06
40948;BME280;49382;-25.924;28.194;2023-04-23T00:16:09;84998.17;;;18.92;32.17
40948;BME280;49382;-25.924;28.194;2023-04-23T00:18:33;85001.64;;;19.45;31.42
40948;BME280;49382;-25.924;28.194;2023-04-23T00:20:58;84999.32;;;19.38;30.49
40948;BME280;49382;-25.924;28.194;2023-04-23T00:23:24;84995.82;;;19.45;27.40
40948;BME280;49382;-25.924;28.194;2023-04-23T00:25:49;84993.00;;;20.21;26.92
40948;BME280;49382;-25.924;28.194;2023-04-23T00:28:14;84987.11;;;20.30;24.88
40948;BME280;49382;-25.924;28.194;2023-04-23T00:30:39;84986.48;;;20.25;23.92
40948;BME280;49382;-25.924;28.194;2023-04-23T00:33:04;84986.53;;;20.05;25.35
40948;BME280;49382;-25.924;28.194;2023-04-23T00:35:29;84987.24;;;20.45;24.42
40948;BME280;49382;-25.924;28.194;2023-04-23T00:37:54;84979.75;;;20.25;24.36
40948;BME280;49382;-25.924;28.194;2023-04-23T00:40:19;84977.57;;;20.55;23.99
40948;BME280;49382;-25.924;28.194;2023-04-23T00:42:44;84973.24;;;20.62;24.15
40948;BME280;49382;-25.924;28.194;2023-04-23T00:45:10;84972.06;;;19.69;25.05
40948;BME280;49382;-25.924;28.194;2023-04-23T00:47:35;84971.90;;;19.42;25.84
40948;BME280;49382;-25.924;28.194;2023-04-23T00:50:00;84967.98;;;19.42;25.40
40948;BME280;49382;-25.924;28.194;2023-04-23T00:52:24;84965.83;;;20.49;24.23
40948;BME280;49382;-25.924;28.194;2023-04-23T00:54:50;84964.50;;;20.35;23.98
40948;BME280;49382;-25.924;28.194;2023-04-23T00:57:15;84961.28;;;20.75;22.71
40948;BME280;49382;-25.924;28.194;2023-04-23T00:59:40;84960.66;;;20.51;23.75
40948;BME280;49382;-25.924;28.194;2023-04-23T01:02:05;84956.48;;;20.25;23.50
40948;BME280;49382;-25.924;28.194;2023-04-23T01:04:30;84954.85;;;20.98;22.19
40948;BME280;49382;-25.924;28.194;2023-04-23T01:06:55;84954.01;;;20.65;23.19
40948;BME280;49382;-25.924;28.194;2023-04-23T01:09:20;84953.67;;;19.88;24.01
40948;BME280;49382;-25.924;28.194;2023-04-23T01:11:45;84957.86;;;19.91;25.57
40948;BME280;49382;-25.924;28.194;2023-04-23T01:14:10;84959.29;;;20.14;27.16
40948;BME280;49382;-25.924;28.194;2023-04-23T01:16:35;84957.71;;;19.64;27.66
40948;BME280;49382;-25.924;28.194;2023-04-23T01:19:00;84959.23;;;19.53;27.86
40948;BME280;49382;-25.924;28.194;2023-04-23T01:21:25;84959.41;;;19.92;27.21
40948;BME280;49382;-25.924;28.194;2023-04-23T01:23:50;84957.81;;;19.73;27.16
40948;BME280;49382;-25.924;28.194;2023-04-23T01:26:15;84953.72;;;19.77;26.34
40948;BME280;49382;-25.924;28.194;2023-04-23T01:28:40;84949.69;;;19.30;27.53
40948;BME280;49382;-25.924;28.194;2023-04-23T01:31:05;84946.99;;;18.74;27.61
40948;BME280;49382;-25.924;28.194;2023-04-23T01:33:31;84941.21;;;18.57;28.43
40948;BME280;49382;-25.924;28.194;2023-04-23T01:35:56;84941.88;;;19.45;25.39
40948;BME280;49382;-25.924;28.194;2023-04-23T01:38:22;84943.38;;;20.26;24.22
40948;BME280;49382;-25.924;28.194;2023-04-23T01:40:45;84946.51;;;20.42;23.41
40948;BME280;49382;-25.924;28.194;2023-04-23T01:43:10;84949.79;;;20.39;23.30
40948;BME280;49382;-25.924;28.194;2023-04-23T01:45:35;84950.14;;;20.81;23.28
40948;BME280;49382;-25.924;28.194;2023-04-23T01:48:00;84950.16;;;20.53;23.17
40948;BME280;49382;-25.924;28.194;2023-04-23T01:50:25;84951.67;;;20.75;23.05
40948;BME280;49382;-25.924;28.194;2023-04-23T01:52:50;84952.07;;;20.70;23.58
40948;BME280;49382;-25.924;28.194;2023-04-23T01:55:15;84947.47;;;20.72;23.35
40948;BME280;49382;-25.924;28.194;2023-04-23T01:57:41;84945.51;;;20.39;23.64
40948;BME280;49382;-25.924;28.194;2023-04-23T02:00:08;84945.10;;;20.24;23.64
40948;BME280;49382;-25.924;28.194;2023-04-23T02:02:32;84942.90;;;19.87;24.23
40948;BME280;49382;-25.924;28.194;2023-04-23T02:04:58;84942.92;;;20.13;23.85
40948;BME280;49382;-25.924;28.194;2023-04-23T02:07:22;84940.31;;;20.03;24.09
40948;BME280;49382;-25.924;28.194;2023-04-23T02:09:48;84939.33;;;19.81;24.26
40948;BME280;49382;-25.924;28.194;2023-04-23T02:12:14;84936.49;;;19.96;23.58
40948;BME280;49382;-25.924;28.194;2023-04-23T02:14:39;84937.11;;;20.18;23.21
40948;BME280;49382;-25.924;28.194;2023-04-23T02:17:04;84936.92;;;19.36;24.02
40948;BME280;49382;-25.924;28.194;2023-04-23T02:19:29;84938.67;;;19.26;24.16
40948;BME280;49382;-25.924;28.194;2023-04-23T02:21:55;84933.85;;;18.72;24.62
40948;BME280;49382;-25.924;28.194;2023-04-23T02:24:20;84932.55;;;18.58;25.09
40948;BME280;49382;-25.924;28.194;2023-04-23T02:26:45;84930.74;;;18.86;24.63
40948;BME280;49382;-25.924;28.194;2023-04-23T02:29:10;84927.93;;;18.18;25.30
40948;BME280;49382;-25.924;28.194;2023-04-23T02:31:35;84930.02;;;18.19;25.38
40948;BME280;49382;-25.924;28.194;2023-04-23T02:34:00;84927.24;;;18.63;25.39
40948;BME280;49382;-25.924;28.194;2023-04-23T02:36:25;84932.79;;;19.46;24.86
40948;BME280;49382;-25.924;28.194;2023-04-23T02:38:50;84928.48;;;19.32;24.66
40948;BME280;49382;-25.924;28.194;2023-04-23T02:41:15;84929.91;;;19.79;23.48
40948;BME280;49382;-25.924;28.194;2023-04-23T02:43:40;84933.16;;;18.61;24.06
40948;BME280;49382;-25.924;28.194;2023-04-23T02:46:05;84929.62;;;19.16;23.75
40948;BME280;49382;-25.924;28.194;2023-04-23T02:48:30;84928.72;;;19.29;22.97
40948;BME280;49382;-25.924;28.194;2023-04-23T02:50:55;84930.44;;;19.78;22.67
40948;BME280;49382;-25.924;28.194;2023-04-23T02:53:20;84931.11;;;19.57;22.51
40948;BME280;49382;-25.924;28.194;2023-04-23T02:55:45;84938.09;;;19.44;22.78
40948;BME280;49382;-25.924;28.194;2023-04-23T02:58:11;84942.30;;;18.66;24.42
40948;BME280;49382;-25.924;28.194;2023-04-23T03:00:36;84945.17;;;18.33;24.77
40948;BME280;49382;-25.924;28.194;2023-04-23T03:03:03;84945.45;;;18.60;24.10
40948;BME280;49382;-25.924;28.194;2023-04-23T03:05:26;84944.37;;;18.26;23.82
40948;BME280;49382;-25.924;28.194;2023-04-23T03:07:50;84952.92;;;17.97;23.75
40948;BME280;49382;-25.924;28.194;2023-04-23T03:10:16;84952.63;;;18.89;22.86
40948;BME280;49382;-25.924;28.194;2023-04-23T03:12:41;84955.93;;;19.06;22.35
40948;BME280;49382;-25.924;28.194;2023-04-23T03:15:06;84959.55;;;19.04;22.29
40948;BME280;49382;-25.924;28.194;2023-04-23T03:17:31;84960.05;;;18.61;22.77
40948;BME280;49382;-25.924;28.194;2023-04-23T03:19:56;84975.85;;;19.05;23.04
40948;BME280;49382;-25.924;28.194;2023-04-23T03:22:21;84980.97;;;19.60;24.50
40948;BME280;49382;-25.924;28.194;2023-04-23T03:24:46;84981.56;;;19.79;23.89
40948;BME280;49382;-25.924;28.194;2023-04-23T03:27:11;84978.62;;;19.53;24.57
40948;BME280;49382;-25.924;28.194;2023-04-23T03:29:36;84971.65;;;18.43;26.93
40948;BME280;49382;-25.924;28.194;2023-04-23T03:32:01;84972.67;;;18.16;27.54
40948;BME280;49382;-25.924;28.194;2023-04-23T03:34:26;84973.26;;;17.72;27.88
40948;BME280;49382;-25.924;28.194;2023-04-23T03:36:51;84975.66;;;17.57;28.09
40948;BME280;49382;-25.924;28.194;2023-04-23T03:39:16;84973.90;;;18.04;27.83
40948;BME280;49382;-25.924;28.194;2023-04-23T03:41:42;84974.82;;;18.15;26.62
40948;BME280;49382;-25.924;28.194;2023-04-23T03:44:07;84973.61;;;17.94;25.68
40948;BME280;49382;-25.924;28.194;2023-04-23T03:46:32;84978.28;;;18.51;23.96
40948;BME280;49382;-25.924;28.194;2023-04-23T03:48:57;84977.06;;;19.01;23.52
40948;BME280;49382;-25.924;28.194;2023-04-23T03:51:22;84978.52;;;18.90;23.22
40948;BME280;49382;-25.924;28.194;2023-04-23T03:53:48;84983.06;;;17.83;24.93
40948;BME280;49382;-25.924;28.194;2023-04-23T03:56:12;84983.48;;;17.91;25.17
40948;BME280;49382;-25.924;28.194;2023-04-23T03:58:37;84983.08;;;18.05;25.58
40948;BME280;49382;-25.924;28.194;2023-04-23T04:01:03;84987.44;;;18.13;26.25
40948;BME280;49382;-25.924;28.194;2023-04-23T04:03:27;84984.09;;;17.87;26.20
40948;BME280;49382;-25.924;28.194;2023-04-23T04:05:52;84987.41;;;17.76;26.94
40948;BME280;49382;-25.924;28.194;2023-04-23T04:08:18;84993.79;;;17.98;26.98
40948;BME280;49382;-25.924;28.194;2023-04-23T04:10:43;85000.06;;;18.43;26.14
40948;BME280;49382;-25.924;28.194;2023-04-23T04:13:08;85002.08;;;18.23;27.54
40948;BME280;49382;-25.924;28.194;2023-04-23T04:15:33;85008.33;;;18.38;27.19
40948;BME280;49382;-25.924;28.194;2023-04-23T04:17:59;85011.21;;;18.64;27.33
40948;BME280;49382;-25.924;28.194;2023-04-23T04:20:24;85013.37;;;18.69;27.15
40948;BME280;49382;-25.924;28.194;2023-04-23T04:22:50;85015.88;;;18.90;26.78
40948;BME280;49382;-25.924;28.194;2023-04-23T04:25:15;85018.33;;;19.02;27.00
40948;BME280;49382;-25.924;28.194;2023-04-23T04:27:40;85020.56;;;18.78;27.40
40948;BME280;49382;-25.924;28.194;2023-04-23T04:30:07;85025.35;;;18.81;27.42
40948;BME280;49382;-25.924;28.194;2023-04-23T04:32:31;85021.25;;;18.53;27.78
40948;BME280;49382;-25.924;28.194;2023-04-23T04:34:57;85014.71;;;18.23;28.22
40948;BME280;49382;-25.924;28.194;2023-04-23T04:37:23;85016.06;;;18.27;27.88
40948;BME280;49382;-25.924;28.194;2023-04-23T04:39:48;85023.37;;;17.84;28.13
40948;BME280;49382;-25.924;28.194;2023-04-23T04:42:13;85030.38;;;17.15;28.99
40948;BME280;49382;-25.924;28.194;2023-04-23T04:44:39;85033.13;;;16.85;28.77
40948;BME280;49382;-25.924;28.194;2023-04-23T04:47:04;85035.76;;;16.75;28.80
40948;BME280;49382;-25.924;28.194;2023-04-23T04:49:30;85041.24;;;17.52;27.98
40948;BME280;49382;-25.924;28.194;2023-04-23T04:51:55;85040.73;;;17.92;28.03
40948;BME280;49382;-25.924;28.194;2023-04-23T04:54:20;85043.69;;;18.21;27.39
40948;BME280;49382;-25.924;28.194;2023-04-23T04:56:46;85046.81;;;18.25;28.79
40948;BME280;49382;-25.924;28.194;2023-04-23T04:59:11;85050.66;;;18.17;29.07
40948;BME280;49382;-25.924;28.194;2023-04-23T05:01:37;85052.76;;;18.12;29.72
40948;BME280;49382;-25.924;28.194;2023-04-23T05:04:03;85053.46;;;18.09;30.15
40948;BME280;49382;-25.924;28.194;2023-04-23T05:06:28;85053.98;;;18.05;30.60
40948;BME280;49382;-25.924;28.194;2023-04-23T05:08:53;85053.41;;;18.19;30.43
40948;BME280;49382;-25.924;28.194;2023-04-23T05:11:19;85056.95;;;19.21;29.93
40948;BME280;49382;-25.924;28.194;2023-04-23T05:13:45;85055.88;;;19.22;29.09
40948;BME280;49382;-25.924;28.194;2023-04-23T05:16:10;85057.20;;;19.94;27.98
40948;BME280;49382;-25.924;28.194;2023-04-23T05:18:35;85059.46;;;19.81;27.32
40948;BME280;49382;-25.924;28.194;2023-04-23T05:21:00;85065.96;;;20.19;26.80
40948;BME280;49382;-25.924;28.194;2023-04-23T05:23:25;85065.10;;;20.19;27.30
40948;BME280;49382;-25.924;28.194;2023-04-23T05:25:50;85069.35;;;20.17;28.84
40948;BME280;49382;-25.924;28.194;2023-04-23T05:28:16;85075.84;;;20.11;27.86
40948;BME280;49382;-25.924;28.194;2023-04-23T05:30:41;85076.29;;;20.38;28.10
40948;BME280;49382;-25.924;28.194;2023-04-23T05:33:06;85079.03;;;20.08;27.57
40948;BME280;49382;-25.924;28.194;2023-04-23T05:35:31;85082.14;;;20.38;28.90
40948;BME280;49382;-25.924;28.194;2023-04-23T05:37:57;85084.23;;;20.69;27.03
40948;BME280;49382;-25.924;28.194;2023-04-23T05:40:22;85085.05;;;20.28;26.75
40948;BME280;49382;-25.924;28.194;2023-04-23T05:42:47;85085.78;;;20.27;27.97
40948;BME280;49382;-25.924;28.194;2023-04-23T05:45:12;85089.73;;;20.66;29.30
40948;BME280;49382;-25.924;28.194;2023-04-23T05:47:37;85094.49;;;20.93;28.81
40948;BME280;49382;-25.924;28.194;2023-04-23T05:50:03;85099.59;;;21.25;27.75
40948;BME280;49382;-25.924;28.194;2023-04-23T05:52:28;85100.73;;;21.23;28.09
40948;BME280;49382;-25.924;28.194;2023-04-23T05:54:53;85104.31;;;21.19;27.96
40948;BME280;49382;-25.924;28.194;2023-04-23T05:57:18;85105.12;;;21.06;28.03
40948;BME280;49382;-25.924;28.194;2023-04-23T05:59:44;85101.55;;;21.28;27.89
40948;BME280;49382;-25.924;28.194;2023-04-23T06:02:10;85103.32;;;21.95;28.24
40948;BME280;49382;-25.924;28.194;2023-04-23T06:04:34;85102.06;;;21.94;27.79
40948;BME280;49382;-25.924;28.194;2023-04-23T06:07:00;85104.03;;;22.48;26.95
40948;BME280;49382;-25.924;28.194;2023-04-23T06:09:26;85101.08;;;22.46;25.02
40948;BME280;49382;-25.924;28.194;2023-04-23T06:11:52;85108.31;;;22.99;24.89
40948;BME280;49382;-25.924;28.194;2023-04-23T06:14:17;85112.53;;;22.77;23.69
40948;BME280;49382;-25.924;28.194;2023-04-23T06:16:42;85115.18;;;23.28;22.33
40948;BME280;49382;-25.924;28.194;2023-04-23T06:19:08;85120.77;;;23.26;21.69
40948;BME280;49382;-25.924;28.194;2023-04-23T06:21:33;85127.51;;;23.47;21.85
40948;BME280;49382;-25.924;28.194;2023-04-23T06:23:58;85127.17;;;24.03;21.79
40948;BME280;49382;-25.924;28.194;2023-04-23T06:26:24;85126.48;;;23.81;21.76
40948;BME280;49382;-25.924;28.194;2023-04-23T06:28:49;85126.42;;;23.85;21.32
40948;BME280;49382;-25.924;28.194;2023-04-23T06:31:15;85129.21;;;23.87;20.55
40948;BME280;49382;-25.924;28.194;2023-04-23T06:33:40;85129.49;;;24.52;19.55
40948;BME280;49382;-25.924;28.194;2023-04-23T06:36:07;85132.04;;;24.41;19.44
40948;BME280;49382;-25.924;28.194;2023-04-23T06:38:32;85129.82;;;24.27;18.84
40948;BME280;49382;-25.924;28.194;2023-04-23T06:40:58;85132.41;;;24.39;19.44
40948;BME280;49382;-25.924;28.194;2023-04-23T06:43:23;85134.62;;;23.76;19.38
40948;BME280;49382;-25.924;28.194;2023-04-23T06:45:48;85142.06;;;24.67;19.54
40948;BME280;49382;-25.924;28.194;2023-04-23T06:48:13;85143.14;;;24.77;19.98
40948;BME280;49382;-25.924;28.194;2023-04-23T06:50:39;85144.68;;;24.84;19.76
40948;BME280;49382;-25.924;28.194;2023-04-23T06:53:05;85149.06;;;24.69;19.88
40948;BME280;49382;-25.924;28.194;2023-04-23T06:55:29;85149.88;;;24.64;21.04
40948;BME280;49382;-25.924;28.194;2023-04-23T06:57:54;85150.57;;;25.18;19.97
40948;BME280;49382;-25.924;28.194;2023-04-23T07:00:21;85151.65;;;25.44;20.02
40948;BME280;49382;-25.924;28.194;2023-04-23T07:02:46;85146.91;;;25.82;18.02
40948;BME280;49382;-25.924;28.194;2023-04-23T07:05:12;85144.06;;;25.55;15.46
40948;BME280;49382;-25.924;28.194;2023-04-23T07:07:37;85148.84;;;25.82;15.91
40948;BME280;49382;-25.924;28.194;2023-04-23T07:10:04;85151.73;;;26.00;15.25
40948;BME280;49382;-25.924;28.194;2023-04-23T07:12:29;85152.06;;;25.39;15.25
40948;BME280;49382;-25.924;28.194;2023-04-23T07:14:55;85152.32;;;25.72;13.90
40948;BME280;49382;-25.924;28.194;2023-04-23T07:17:21;85161.61;;;26.28;14.19
40948;BME280;49382;-25.924;28.194;2023-04-23T07:19:46;85166.28;;;26.69;13.49
40948;BME280;49382;-25.924;28.194;2023-04-23T07:22:12;85167.81;;;26.41;13.35
40948;BME280;49382;-25.924;28.194;2023-04-23T07:24:38;85168.95;;;26.77;13.30
40948;BME280;49382;-25.924;28.194;2023-04-23T07:27:04;85166.44;;;27.12;12.14
40948;BME280;49382;-25.924;28.194;2023-04-23T07:29:29;85158.71;;;26.48;12.50
40948;BME280;49382;-25.924;28.194;2023-04-23T07:31:55;85160.27;;;26.97;11.31
40948;BME280;49382;-25.924;28.194;2023-04-23T07:34:21;85160.12;;;27.35;11.37
40948;BME280;49382;-25.924;28.194;2023-04-23T07:36:47;85161.53;;;27.21;11.11
40948;BME280;49382;-25.924;28.194;2023-04-23T07:39:12;85159.44;;;27.59;10.14
40948;BME280;49382;-25.924;28.194;2023-04-23T07:41:38;85158.02;;;27.31;10.24
40948;BME280;49382;-25.924;28.194;2023-04-23T07:44:04;85160.34;;;27.34;10.78
40948;BME280;49382;-25.924;28.194;2023-04-23T07:46:30;85157.46;;;28.27;11.21
40948;BME280;49382;-25.924;28.194;2023-04-23T07:48:55;85157.42;;;27.17;10.28
40948;BME280;49382;-25.924;28.194;2023-04-23T07:51:21;85155.12;;;28.18;9.54
40948;BME280;49382;-25.924;28.194;2023-04-23T07:53:47;85161.01;;;27.45;9.88
40948;BME280;49382;-25.924;28.194;2023-04-23T07:56:12;85157.39;;;27.98;9.80
40948;BME280;49382;-25.924;28.194;2023-04-23T07:58:38;85161.83;;;28.93;9.65
40948;BME280;49382;-25.924;28.194;2023-04-23T08:01:04;85160.46;;;30.45;8.22
40948;BME280;49382;-25.924;28.194;2023-04-23T08:03:30;85166.53;;;34.21;7.28
40948;BME280;49382;-25.924;28.194;2023-04-23T08:05:55;85178.99;;;39.69;5.31
40948;BME280;49382;-25.924;28.194;2023-04-23T08:08:21;85179.75;;;44.30;3.66
40948;BME280;49382;-25.924;28.194;2023-04-23T08:10:47;85182.55;;;47.19;2.72
40948;BME280;49382;-25.924;28.194;2023-04-23T08:13:13;85175.16;;;47.92;2.23
40948;BME280;49382;-25.924;28.194;2023-04-23T08:15:38;85180.88;;;48.81;1.73
40948;BME280;49382;-25.924;28.194;2023-04-23T08:18:04;85184.19;;;50.58;1.08
40948;BME280;49382;-25.924;28.194;2023-04-23T08:20:30;85180.42;;;53.29;0.43
40948;BME280;49382;-25.924;28.194;2023-04-23T08:22:55;85184.43;;;53.75;0.07
40948;BME280;49382;-25.924;28.194;2023-04-23T08:25:21;85184.00;;;54.31;0.00
40948;BME280;49382;-25.924;28.194;2023-04-23T08:27:47;85192.23;;;54.00;0.00
40948;BME280;49382;-25.924;28.194;2023-04-23T08:30:13;85197.07;;;55.94;0.00
40948;BME280;49382;-25.924;28.194;2023-04-23T08:32:39;85191.77;;;55.66;0.00
40948;BME280;49382;-25.924;28.194;2023-04-23T08:35:04;85195.31;;;54.44;0.00
40948;BME280;49382;-25.924;28.194;2023-04-23T08:37:29;85196.03;;;55.94;0.00
40948;BME280;49382;-25.924;28.194;2023-04-23T08:39:55;85197.11;;;55.32;0.00
40948;BME280;49382;-25.924;28.194;2023-04-23T08:42:29;85199.43;;;55.48;0.00
40948;BME280;49382;-25.924;28.194;2023-04-23T08:44:46;85196.25;;;57.05;0.00
40948;BME280;49382;-25.924;28.194;2023-04-23T08:47:14;85191.35;;;52.54;0.00
40948;BME280;49382;-25.924;28.194;2023-04-23T08:49:40;85169.87;;;47.10;1.33
40948;BME280;49382;-25.924;28.194;2023-04-23T08:52:12;85155.13;;;40.53;3.02
40948;BME280;49382;-25.924;28.194;2023-04-23T08:54:30;85149.52;;;36.74;4.07
40948;BME280;49382;-25.924;28.194;2023-04-23T08:56:56;85152.27;;;36.22;5.12
40948;BME280;49382;-25.924;28.194;2023-04-23T08:59:20;85146.09;;;36.53;4.97
40948;BME280;49382;-25.924;28.194;2023-04-23T09:01:45;85142.49;;;35.08;5.33
40948;BME280;49382;-25.924;28.194;2023-04-23T09:04:12;85139.70;;;33.73;6.69
40948;BME280;49382;-25.924;28.194;2023-04-23T09:06:37;85144.59;;;32.00;7.56
40948;BME280;49382;-25.924;28.194;2023-04-23T09:09:03;85146.02;;;33.36;6.57
40948;BME280;49382;-25.924;28.194;2023-04-23T09:11:29;85146.33;;;32.80;8.56
40948;BME280;49382;-25.924;28.194;2023-04-23T09:13:54;85144.80;;;32.71;7.84
40948;BME280;49382;-25.924;28.194;2023-04-23T09:16:19;85142.22;;;31.93;8.84
40948;BME280;49382;-25.924;28.194;2023-04-23T09:18:44;85138.40;;;30.55;8.74
40948;BME280;49382;-25.924;28.194;2023-04-23T09:21:11;85134.67;;;29.96;8.11
40948;BME280;49382;-25.924;28.194;2023-04-23T09:23:38;85132.95;;;31.02;7.63
40948;BME280;49382;-25.924;28.194;2023-04-23T09:26:05;85130.00;;;29.19;8.53
40948;BME280;49382;-25.924;28.194;2023-04-23T09:28:34;85129.56;;;31.14;6.42
40948;BME280;49382;-25.924;28.194;2023-04-23T09:30:53;85131.65;;;31.34;7.99
40948;BME280;49382;-25.924;28.194;2023-04-23T09:33:18;85130.47;;;30.72;8.06
40948;BME280;49382;-25.924;28.194;2023-04-23T09:35:44;85130.43;;;31.27;8.93
40948;BME280;49382;-25.924;28.194;2023-04-23T09:38:09;85121.10;;;30.25;9.55
40948;BME280;49382;-25.924;28.194;2023-04-23T09:40:36;85115.93;;;30.70;11.63
40948;BME280;49382;-25.924;28.194;2023-04-23T09:43:03;85109.14;;;30.15;9.40
40948;BME280;49382;-25.924;28.194;2023-04-23T09:45:28;85106.57;;;29.97;10.91
40948;BME280;49382;-25.924;28.194;2023-04-23T09:47:54;85106.83;;;30.82;9.39
40948;BME280;49382;-25.924;28.194;2023-04-23T09:50:18;85104.18;;;29.87;10.10
40948;BME280;49382;-25.924;28.194;2023-04-23T09:52:44;85103.38;;;28.41;9.22
40948;BME280;49382;-25.924;28.194;2023-04-23T09:55:10;85102.97;;;29.95;9.89
40948;BME280;49382;-25.924;28.194;2023-04-23T09:57:36;85097.15;;;29.46;9.32
40948;BME280;49382;-25.924;28.194;2023-04-23T10:00:11;85096.99;;;29.02;9.34
40948;BME280;49382;-25.924;28.194;2023-04-23T10:02:27;85092.65;;;29.75;10.20
40948;BME280;49382;-25.924;28.194;2023-04-23T10:04:53;85095.14;;;30.00;10.10
40948;BME280;49382;-25.924;28.194;2023-04-23T10:07:21;85090.64;;;30.19;8.91
40948;BME280;49382;-25.924;28.194;2023-04-23T10:09:43;85087.89;;;29.35;10.48
40948;BME280;49382;-25.924;28.194;2023-04-23T10:12:09;85091.10;;;29.70;10.55
40948;BME280;49382;-25.924;28.194;2023-04-23T10:14:34;85085.64;;;30.27;10.48
40948;BME280;49382;-25.924;28.194;2023-04-23T10:17:01;85077.73;;;30.02;8.89
40948;BME280;49382;-25.924;28.194;2023-04-23T10:19:27;85072.35;;;29.64;10.19
40948;BME280;49382;-25.924;28.194;2023-04-23T10:21:54;85066.37;;;29.47;10.43
40948;BME280;49382;-25.924;28.194;2023-04-23T10:24:17;85063.34;;;29.02;10.78
40948;BME280;49382;-25.924;28.194;2023-04-23T10:26:44;85067.26;;;29.63;12.65
40948;BME280;49382;-25.924;28.194;2023-04-23T10:29:13;85062.61;;;28.74;10.55
40948;BME280;49382;-25.924;28.194;2023-04-23T10:31:35;85070.88;;;29.48;11.54
40948;BME280;49382;-25.924;28.194;2023-04-23T10:34:02;85065.88;;;29.36;11.38
40948;BME280;49382;-25.924;28.194;2023-04-23T10:36:26;85061.93;;;28.54;11.14
40948;BME280;49382;-25.924;28.194;2023-04-23T10:38:52;85058.55;;;28.87;11.27
40948;BME280;49382;-25.924;28.194;2023-04-23T10:41:19;85054.89;;;29.21;11.29
40948;BME280;49382;-25.924;28.194;2023-04-23T10:43:43;85055.11;;;29.36;11.75
40948;BME280;49382;-25.924;28.194;2023-04-23T10:51:00;85045.45;;;29.41;10.51
40948;BME280;49382;-25.924;28.194;2023-04-23T10:53:26;85047.05;;;28.51;12.06
40948;BME280;49382;-25.924;28.194;2023-04-23T10:58:18;85042.93;;;29.31;11.70
40948;BME280;49382;-25.924;28.194;2023-04-23T11:00:44;85042.75;;;28.00;11.81
40948;BME280;49382;-25.924;28.194;2023-04-23T11:05:35;85027.23;;;28.50;10.75
40948;BME280;49382;-25.924;28.194;2023-04-23T11:08:06;85020.81;;;28.28;10.85
40948;BME280;49382;-25.924;28.194;2023-04-23T11:10:26;85022.92;;;28.93;11.74
40948;BME280;49382;-25.924;28.194;2023-04-23T11:12:54;85021.80;;;28.58;11.59
40948;BME280;49382;-25.924;28.194;2023-04-23T11:15:19;85018.20;;;27.73;13.19
40948;BME280;49382;-25.924;28.194;2023-04-23T11:20:11;85014.91;;;29.20;13.05
40948;BME280;49382;-25.924;28.194;2023-04-23T11:22:36;85008.72;;;29.08;12.34
40948;BME280;49382;-25.924;28.194;2023-04-23T11:25:01;84999.32;;;28.08;10.49
40948;BME280;49382;-25.924;28.194;2023-04-23T11:27:29;84994.84;;;27.80;11.79
40948;BME280;49382;-25.924;28.194;2023-04-23T11:29:53;84990.30;;;27.94;11.42
40948;BME280;49382;-25.924;28.194;2023-04-23T11:32:18;84991.69;;;28.27;11.69
40948;BME280;49382;-25.924;28.194;2023-04-23T11:34:46;84991.15;;;28.78;12.20
40948;BME280;49382;-25.924;28.194;2023-04-23T11:37:10;84984.08;;;29.00;12.43
40948;BME280;49382;-25.924;28.194;2023-04-23T11:39:36;84979.03;;;28.56;11.12
40948;BME280;49382;-25.924;28.194;2023-04-23T11:42:01;84970.03;;;27.96;11.96
40948;BME280;49382;-25.924;28.194;2023-04-23T11:44:27;84975.13;;;28.74;12.20
40948;BME280;49382;-25.924;28.194;2023-04-23T11:46:53;84972.77;;;28.63;12.17
40948;BME280;49382;-25.924;28.194;2023-04-23T11:49:19;84971.07;;;28.99;13.48
40948;BME280;49382;-25.924;28.194;2023-04-23T11:51:45;84969.19;;;28.60;13.80
40948;BME280;49382;-25.924;28.194;2023-04-23T11:54:11;84966.17;;;28.72;14.30
40948;BME280;49382;-25.924;28.194;2023-04-23T11:56:36;84962.66;;;28.61;12.87
40948;BME280;49382;-25.924;28.194;2023-04-23T11:59:02;84959.15;;;28.29;11.66
40948;BME280;49382;-25.924;28.194;2023-04-23T12:01:27;84958.33;;;28.75;12.34
40948;BME280;49382;-25.924;28.194;2023-04-23T12:03:53;84957.55;;;28.61;12.85
40948;BME280;49382;-25.924;28.194;2023-04-23T12:06:19;84956.48;;;28.85;12.60
40948;BME280;49382;-25.924;28.194;2023-04-23T12:08:46;84955.85;;;28.97;12.33
40948;BME280;49382;-25.924;28.194;2023-04-23T12:11:11;84950.55;;;27.90;11.49
40948;BME280;49382;-25.924;28.194;2023-04-23T12:13:39;84948.04;;;28.11;12.44
40948;BME280;49382;-25.924;28.194;2023-04-23T12:16:03;84944.40;;;28.50;12.15
40948;BME280;49382;-25.924;28.194;2023-04-23T12:18:29;84946.43;;;28.70;12.83
40948;BME280;49382;-25.924;28.194;2023-04-23T12:20:54;84947.77;;;28.46;12.84
40948;BME280;49382;-25.924;28.194;2023-04-23T12:23:25;84952.87;;;28.70;12.14
40948;BME280;49382;-25.924;28.194;2023-04-23T12:25:45;84945.82;;;28.56;12.84
40948;BME280;49382;-25.924;28.194;2023-04-23T12:28:11;84945.47;;;28.80;12.78
40948;BME280;49382;-25.924;28.194;2023-04-23T12:30:42;84942.39;;;28.78;12.81
40948;BME280;49382;-25.924;28.194;2023-04-23T12:33:03;84945.46;;;28.90;12.08
40948;BME280;49382;-25.924;28.194;2023-04-23T12:37:54;84932.78;;;27.54;13.04
40948;BME280;49382;-25.924;28.194;2023-04-23T12:40:20;84933.93;;;28.05;12.84
40948;BME280;49382;-25.924;28.194;2023-04-23T12:42:46;84936.25;;;28.83;13.26
40948;BME280;49382;-25.924;28.194;2023-04-23T12:45:12;84933.64;;;28.31;13.23
40948;BME280;49382;-25.924;28.194;2023-04-23T12:47:38;84935.90;;;28.17;12.99